sensor_id;sensor_type;location;lat;lon;timestamp;temperature;humidity
9193;DHT22;4631;49.296;10.560;2023-05-07T00:01:29;12.60;99.90
9193;DHT22;4631;49.296;10.560;2023-05-07T00:03:55;12.60;99.90
9193;DHT22;4631;49.296;10.560;2023-05-07T00:06:22;12.50;99.90
9193;DHT22;4631;49.296;10.560;2023-05-07T00:08:49;12.50;99.90
9193;DHT22;4631;49.296;10.560;2023-05-07T00:11:15;12.50;99.90
9193;DHT22;4631;49.296;10.560;2023-05-07T00:13:43;12.40;99.90
9193;DHT22;4631;49.296;10.560;2023-05-07T00:16:10;12.40;99.90
9193;DHT22;4631;49.296;10.560;2023-05-07T00:18:37;12.40;99.90
9193;DHT22;4631;49.296;10.560;2023-05-07T00:21:04;12.30;99.90
9193;DHT22;4631;49.296;10.560;2023-05-07T00:23:30;12.30;99.90
9193;DHT22;4631;49.296;10.560;2023-05-07T00:25:57;12.30;99.90
9193;DHT22;4631;49.296;10.560;2023-05-07T00:28:24;12.30;99.90
9193;DHT22;4631;49.296;10.560;2023-05-07T00:30:51;12.30;99.90
9193;DHT22;4631;49.296;10.560;2023-05-07T00:33:18;12.30;99.90
9193;DHT22;4631;49.296;10.560;2023-05-07T00:35:46;12.30;99.90
9193;DHT22;4631;49.296;10.560;2023-05-07T00:38:12;12.30;99.90
9193;DHT22;4631;49.296;10.560;2023-05-07T00:40:39;12.30;99.90
9193;DHT22;4631;49.296;10.560;2023-05-07T00:43:06;12.30;99.90
9193;DHT22;4631;49.296;10.560;2023-05-07T00:45:34;12.30;99.90
9193;DHT22;4631;49.296;10.560;2023-05-07T00:48:02;12.30;99.90
9193;DHT22;4631;49.296;10.560;2023-05-07T00:50:28;12.20;99.90
9193;DHT22;4631;49.296;10.560;2023-05-07T00:52:56;12.20;99.90
9193;DHT22;4631;49.296;10.560;2023-05-07T00:55:23;12.20;99.90
9193;DHT22;4631;49.296;10.560;2023-05-07T00:57:50;12.20;99.90
9193;DHT22;4631;49.296;10.560;2023-05-07T01:00:17;12.20;99.90
9193;DHT22;4631;49.296;10.560;2023-05-07T01:02:43;12.10;99.90
9193;DHT22;4631;49.296;10.560;2023-05-07T01:05:13;12.10;99.90
9193;DHT22;4631;49.296;10.560;2023-05-07T01:07:40;12.10;99.90
9193;DHT22;4631;49.296;10.560;2023-05-07T01:10:08;12.00;99.90
9193;DHT22;4631;49.296;10.560;2023-05-07T01:12:35;12.00;99.90
9193;DHT22;4631;49.296;10.560;2023-05-07T01:15:03;12.00;99.90
9193;DHT22;4631;49.296;10.560;2023-05-07T01:17:30;12.00;99.90
9193;DHT22;4631;49.296;10.560;2023-05-07T01:19:59;12.00;99.90
9193;DHT22;4631;49.296;10.560;2023-05-07T01:22:29;12.00;99.90
9193;DHT22;4631;49.296;10.560;2023-05-07T01:24:57;12.00;99.90
9193;DHT22;4631;49.296;10.560;2023-05-07T01:27:24;12.00;99.90
9193;DHT22;4631;49.296;10.560;2023-05-07T01:29:51;11.90;99.90
9193;DHT22;4631;49.296;10.560;2023-05-07T01:32:18;11.90;99.90
9193;DHT22;4631;49.296;10.560;2023-05-07T01:34:48;11.90;99.90
9193;DHT22;4631;49.296;10.560;2023-05-07T01:37:15;11.90;99.90
9193;DHT22;4631;49.296;10.560;2023-05-07T01:39:43;11.90;99.90
9193;DHT22;4631;49.296;10.560;2023-05-07T01:42:09;11.80;99.90
9193;DHT22;4631;49.296;10.560;2023-05-07T01:44:36;11.80;99.90
9193;DHT22;4631;49.296;10.560;2023-05-07T01:47:03;11.80;99.90
9193;DHT22;4631;49.296;10.560;2023-05-07T01:49:30;11.80;99.90
9193;DHT22;4631;49.296;10.560;2023-05-07T01:51:56;11.70;99.90
9193;DHT22;4631;49.296;10.560;2023-05-07T01:54:25;11.70;99.90
9193;DHT22;4631;49.296;10.560;2023-05-07T01:56:54;11.70;99.90
9193;DHT22;4631;49.296;10.560;2023-05-07T01:59:21;11.70;99.90
9193;DHT22;4631;49.296;10.560;2023-05-07T02:01:48;11.60;99.90
9193;DHT22;4631;49.296;10.560;2023-05-07T02:04:14;11.60;99.90
9193;DHT22;4631;49.296;10.560;2023-05-07T02:06:41;11.60;99.90
9193;DHT22;4631;49.296;10.560;2023-05-07T02:09:07;11.60;99.90
9193;DHT22;4631;49.296;10.560;2023-05-07T02:11:35;11.60;99.90
9193;DHT22;4631;49.296;10.560;2023-05-07T02:14:03;11.60;99.90
9193;DHT22;4631;49.296;10.560;2023-05-07T02:16:29;11.50;99.90
9193;DHT22;4631;49.296;10.560;2023-05-07T02:18:56;11.50;99.90
9193;DHT22;4631;49.296;10.560;2023-05-07T02:21:23;11.50;99.90
9193;DHT22;4631;49.296;10.560;2023-05-07T02:23:50;11.50;99.90
9193;DHT22;4631;49.296;10.560;2023-05-07T02:26:17;11.50;99.90
9193;DHT22;4631;49.296;10.560;2023-05-07T02:28:43;11.50;99.90
9193;DHT22;4631;49.296;10.560;2023-05-07T02:31:11;11.50;99.90
9193;DHT22;4631;49.296;10.560;2023-05-07T02:33:38;11.50;99.90
9193;DHT22;4631;49.296;10.560;2023-05-07T02:36:05;11.50;99.90
9193;DHT22;4631;49.296;10.560;2023-05-07T02:38:31;11.50;99.90
9193;DHT22;4631;49.296;10.560;2023-05-07T02:40:58;11.40;99.90
9193;DHT22;4631;49.296;10.560;2023-05-07T02:43:25;11.40;99.90
9193;DHT22;4631;49.296;10.560;2023-05-07T02:45:59;11.40;99.90
9193;DHT22;4631;49.296;10.560;2023-05-07T02:48:27;11.30;99.90
9193;DHT22;4631;49.296;10.560;2023-05-07T02:50:54;11.30;99.90
9193;DHT22;4631;49.296;10.560;2023-05-07T02:53:20;11.30;99.90
9193;DHT22;4631;49.296;10.560;2023-05-07T02:55:47;11.30;99.90
9193;DHT22;4631;49.296;10.560;2023-05-07T02:58:13;11.30;99.90
9193;DHT22;4631;49.296;10.560;2023-05-07T03:00:40;11.30;99.90
9193;DHT22;4631;49.296;10.560;2023-05-07T03:03:07;11.30;99.90
9193;DHT22;4631;49.296;10.560;2023-05-07T03:05:35;11.30;99.90
9193;DHT22;4631;49.296;10.560;2023-05-07T03:08:01;11.20;99.90
9193;DHT22;4631;49.296;10.560;2023-05-07T03:10:29;11.30;99.90
9193;DHT22;4631;49.296;10.560;2023-05-07T03:12:55;11.20;99.90
9193;DHT22;4631;49.296;10.560;2023-05-07T03:15:22;11.20;99.90
9193;DHT22;4631;49.296;10.560;2023-05-07T03:17:49;11.20;99.90
9193;DHT22;4631;49.296;10.560;2023-05-07T03:20:15;11.20;99.90
9193;DHT22;4631;49.296;10.560;2023-05-07T03:22:43;11.20;99.90
9193;DHT22;4631;49.296;10.560;2023-05-07T03:25:10;11.20;99.90
9193;DHT22;4631;49.296;10.560;2023-05-07T03:27:37;11.10;99.90
9193;DHT22;4631;49.296;10.560;2023-05-07T03:30:04;11.20;99.90
9193;DHT22;4631;49.296;10.560;2023-05-07T03:32:32;11.10;99.90
9193;DHT22;4631;49.296;10.560;2023-05-07T03:34:58;11.10;99.90
9193;DHT22;4631;49.296;10.560;2023-05-07T03:37:25;11.10;99.90
9193;DHT22;4631;49.296;10.560;2023-05-07T03:39:53;11.10;99.90
9193;DHT22;4631;49.296;10.560;2023-05-07T03:42:20;11.00;99.90
9193;DHT22;4631;49.296;10.560;2023-05-07T03:44:46;11.00;99.90
9193;DHT22;4631;49.296;10.560;2023-05-07T03:47:13;11.00;99.90
9193;DHT22;4631;49.296;10.560;2023-05-07T03:49:40;11.00;99.90
9193;DHT22;4631;49.296;10.560;2023-05-07T03:52:06;11.00;99.90
9193;DHT22;4631;49.296;10.560;2023-05-07T03:54:33;11.00;99.90
9193;DHT22;4631;49.296;10.560;2023-05-07T03:57:01;10.90;99.90
9193;DHT22;4631;49.296;10.560;2023-05-07T03:59:28;10.90;99.90
9193;DHT22;4631;49.296;10.560;2023-05-07T04:01:54;10.90;99.90
9193;DHT22;4631;49.296;10.560;2023-05-07T04:04:21;10.90;99.90
9193;DHT22;4631;49.296;10.560;2023-05-07T04:06:47;10.90;99.90
9193;DHT22;4631;49.296;10.560;2023-05-07T04:09:14;10.90;99.90
9193;DHT22;4631;49.296;10.560;2023-05-07T04:11:41;10.90;99.90
9193;DHT22;4631;49.296;10.560;2023-05-07T04:14:09;10.90;99.90
9193;DHT22;4631;49.296;10.560;2023-05-07T04:16:35;10.90;99.90
9193;DHT22;4631;49.296;10.560;2023-05-07T04:19:02;10.80;99.90
9193;DHT22;4631;49.296;10.560;2023-05-07T04:21:28;10.90;99.90
9193;DHT22;4631;49.296;10.560;2023-05-07T04:23:55;10.90;99.90
9193;DHT22;4631;49.296;10.560;2023-05-07T04:26:22;10.90;99.90
9193;DHT22;4631;49.296;10.560;2023-05-07T04:28:49;10.90;99.90
9193;DHT22;4631;49.296;10.560;2023-05-07T04:31:17;11.00;99.90
9193;DHT22;4631;49.296;10.560;2023-05-07T04:33:44;10.90;99.90
9193;DHT22;4631;49.296;10.560;2023-05-07T04:36:11;11.00;99.90
9193;DHT22;4631;49.296;10.560;2023-05-07T04:38:37;11.00;99.90
9193;DHT22;4631;49.296;10.560;2023-05-07T04:41:04;11.10;99.90
9193;DHT22;4631;49.296;10.560;2023-05-07T04:43:31;11.10;99.90
9193;DHT22;4631;49.296;10.560;2023-05-07T04:45:57;11.10;99.90
9193;DHT22;4631;49.296;10.560;2023-05-07T04:48:26;11.20;99.90
9193;DHT22;4631;49.296;10.560;2023-05-07T04:50:52;11.20;99.90
9193;DHT22;4631;49.296;10.560;2023-05-07T04:53:19;11.20;99.90
9193;DHT22;4631;49.296;10.560;2023-05-07T04:55:45;11.20;99.90
9193;DHT22;4631;49.296;10.560;2023-05-07T04:58:12;11.30;99.90
9193;DHT22;4631;49.296;10.560;2023-05-07T05:00:39;11.40;99.90
9193;DHT22;4631;49.296;10.560;2023-05-07T05:03:06;11.40;99.90
9193;DHT22;4631;49.296;10.560;2023-05-07T05:05:34;11.40;99.90
9193;DHT22;4631;49.296;10.560;2023-05-07T05:08:00;11.40;99.90
9193;DHT22;4631;49.296;10.560;2023-05-07T05:10:27;11.40;99.90
9193;DHT22;4631;49.296;10.560;2023-05-07T05:12:53;11.50;99.90
9193;DHT22;4631;49.296;10.560;2023-05-07T05:15:20;11.50;99.90
9193;DHT22;4631;49.296;10.560;2023-05-07T05:17:47;11.60;99.90
9193;DHT22;4631;49.296;10.560;2023-05-07T05:20:13;11.60;99.90
9193;DHT22;4631;49.296;10.560;2023-05-07T05:22:41;11.60;99.90
9193;DHT22;4631;49.296;10.560;2023-05-07T05:25:08;11.70;99.90
9193;DHT22;4631;49.296;10.560;2023-05-07T05:27:35;11.70;99.90
9193;DHT22;4631;49.296;10.560;2023-05-07T05:30:02;11.80;99.90
9193;DHT22;4631;49.296;10.560;2023-05-07T05:32:28;11.80;99.90
9193;DHT22;4631;49.296;10.560;2023-05-07T05:34:55;11.80;99.90
9193;DHT22;4631;49.296;10.560;2023-05-07T05:37:22;11.80;99.90
9193;DHT22;4631;49.296;10.560;2023-05-07T05:39:50;11.80;99.90
9193;DHT22;4631;49.296;10.560;2023-05-07T05:42:16;11.90;99.90
9193;DHT22;4631;49.296;10.560;2023-05-07T05:44:43;12.00;99.90
9193;DHT22;4631;49.296;10.560;2023-05-07T05:47:09;12.10;99.90
9193;DHT22;4631;49.296;10.560;2023-05-07T05:49:36;12.10;99.90
9193;DHT22;4631;49.296;10.560;2023-05-07T05:52:03;12.20;99.90
9193;DHT22;4631;49.296;10.560;2023-05-07T05:54:29;12.20;99.90
9193;DHT22;4631;49.296;10.560;2023-05-07T05:56:57;12.40;99.90
9193;DHT22;4631;49.296;10.560;2023-05-07T05:59:24;12.50;99.90
9193;DHT22;4631;49.296;10.560;2023-05-07T06:01:51;12.50;99.90
9193;DHT22;4631;49.296;10.560;2023-05-07T06:04:17;12.60;99.90
9193;DHT22;4631;49.296;10.560;2023-05-07T06:06:44;12.70;99.90
9193;DHT22;4631;49.296;10.560;2023-05-07T06:09:11;12.80;99.90
9193;DHT22;4631;49.296;10.560;2023-05-07T06:11:37;12.90;99.90
9193;DHT22;4631;49.296;10.560;2023-05-07T06:14:06;12.90;99.90
9193;DHT22;4631;49.296;10.560;2023-05-07T06:16:32;13.00;99.90
9193;DHT22;4631;49.296;10.560;2023-05-07T06:18:59;13.10;99.90
9193;DHT22;4631;49.296;10.560;2023-05-07T06:21:26;13.20;99.90
9193;DHT22;4631;49.296;10.560;2023-05-07T06:23:52;13.30;99.90
9193;DHT22;4631;49.296;10.560;2023-05-07T06:26:20;13.30;99.90
9193;DHT22;4631;49.296;10.560;2023-05-07T06:28:46;13.40;99.90
9193;DHT22;4631;49.296;10.560;2023-05-07T06:31:15;13.40;99.90
9193;DHT22;4631;49.296;10.560;2023-05-07T06:33:42;13.40;99.90
9193;DHT22;4631;49.296;10.560;2023-05-07T06:36:09;13.50;99.90
9193;DHT22;4631;49.296;10.560;2023-05-07T06:38:36;13.60;99.90
9193;DHT22;4631;49.296;10.560;2023-05-07T06:41:02;13.60;99.90
9193;DHT22;4631;49.296;10.560;2023-05-07T06:43:29;13.70;99.90
9193;DHT22;4631;49.296;10.560;2023-05-07T06:45:56;13.70;99.90
9193;DHT22;4631;49.296;10.560;2023-05-07T06:48:24;13.80;99.90
9193;DHT22;4631;49.296;10.560;2023-05-07T06:50:50;13.80;99.90
9193;DHT22;4631;49.296;10.560;2023-05-07T06:53:17;13.90;99.90
9193;DHT22;4631;49.296;10.560;2023-05-07T06:55:43;13.90;99.90
9193;DHT22;4631;49.296;10.560;2023-05-07T06:58:10;13.90;99.90
9193;DHT22;4631;49.296;10.560;2023-05-07T07:00:37;14.00;99.90
9193;DHT22;4631;49.296;10.560;2023-05-07T07:03:03;14.10;99.90
9193;DHT22;4631;49.296;10.560;2023-05-07T07:05:31;14.10;99.90
9193;DHT22;4631;49.296;10.560;2023-05-07T07:07:58;14.20;99.90
9193;DHT22;4631;49.296;10.560;2023-05-07T07:10:25;14.30;99.90
9193;DHT22;4631;49.296;10.560;2023-05-07T07:12:51;14.40;99.90
9193;DHT22;4631;49.296;10.560;2023-05-07T07:15:19;14.50;99.90
9193;DHT22;4631;49.296;10.560;2023-05-07T07:17:47;14.50;99.90
9193;DHT22;4631;49.296;10.560;2023-05-07T07:20:14;14.60;99.90
9193;DHT22;4631;49.296;10.560;2023-05-07T07:22:42;14.70;99.90
9193;DHT22;4631;49.296;10.560;2023-05-07T07:25:08;14.80;99.90
9193;DHT22;4631;49.296;10.560;2023-05-07T07:27:36;14.80;99.90
9193;DHT22;4631;49.296;10.560;2023-05-07T07:30:03;14.90;99.90
9193;DHT22;4631;49.296;10.560;2023-05-07T07:32:30;15.10;99.90
9193;DHT22;4631;49.296;10.560;2023-05-07T07:34:57;15.20;99.90
9193;DHT22;4631;49.296;10.560;2023-05-07T07:37:24;15.20;99.90
9193;DHT22;4631;49.296;10.560;2023-05-07T07:39:52;15.30;99.90
9193;DHT22;4631;49.296;10.560;2023-05-07T07:42:19;15.30;99.90
9193;DHT22;4631;49.296;10.560;2023-05-07T07:44:47;15.30;99.90
9193;DHT22;4631;49.296;10.560;2023-05-07T07:47:14;15.40;99.90
9193;DHT22;4631;49.296;10.560;2023-05-07T07:49:40;15.40;99.90
9193;DHT22;4631;49.296;10.560;2023-05-07T07:52:07;15.40;99.90
9193;DHT22;4631;49.296;10.560;2023-05-07T07:54:34;15.50;99.90
9193;DHT22;4631;49.296;10.560;2023-05-07T07:57:02;15.50;99.90
9193;DHT22;4631;49.296;10.560;2023-05-07T07:59:28;15.60;99.90
9193;DHT22;4631;49.296;10.560;2023-05-07T08:01:55;15.70;99.90
9193;DHT22;4631;49.296;10.560;2023-05-07T08:04:22;15.80;99.90
9193;DHT22;4631;49.296;10.560;2023-05-07T08:06:48;16.00;99.90
9193;DHT22;4631;49.296;10.560;2023-05-07T08:09:15;16.00;99.90
9193;DHT22;4631;49.296;10.560;2023-05-07T08:11:42;16.00;99.90
9193;DHT22;4631;49.296;10.560;2023-05-07T08:14:10;16.10;99.90
9193;DHT22;4631;49.296;10.560;2023-05-07T08:16:37;16.20;99.90
9193;DHT22;4631;49.296;10.560;2023-05-07T08:19:04;16.20;99.90
9193;DHT22;4631;49.296;10.560;2023-05-07T08:21:30;16.20;99.90
9193;DHT22;4631;49.296;10.560;2023-05-07T08:23:57;16.30;99.90
9193;DHT22;4631;49.296;10.560;2023-05-07T08:26:24;16.20;99.90
9193;DHT22;4631;49.296;10.560;2023-05-07T08:28:50;16.30;99.90
9193;DHT22;4631;49.296;10.560;2023-05-07T08:31:18;16.40;99.90
9193;DHT22;4631;49.296;10.560;2023-05-07T08:33:45;16.50;99.90
9193;DHT22;4631;49.296;10.560;2023-05-07T08:36:11;16.70;99.90
9193;DHT22;4631;49.296;10.560;2023-05-07T08:38:38;16.90;99.90
9193;DHT22;4631;49.296;10.560;2023-05-07T08:41:09;16.90;99.90
9193;DHT22;4631;49.296;10.560;2023-05-07T08:43:36;17.00;99.90
9193;DHT22;4631;49.296;10.560;2023-05-07T08:46:04;17.00;99.90
9193;DHT22;4631;49.296;10.560;2023-05-07T08:48:32;17.10;99.90
9193;DHT22;4631;49.296;10.560;2023-05-07T08:50:58;17.10;99.90
9193;DHT22;4631;49.296;10.560;2023-05-07T08:53:25;17.20;99.90
9193;DHT22;4631;49.296;10.560;2023-05-07T08:55:52;17.20;99.90
9193;DHT22;4631;49.296;10.560;2023-05-07T08:58:19;17.30;99.90
9193;DHT22;4631;49.296;10.560;2023-05-07T09:00:46;17.30;99.90
9193;DHT22;4631;49.296;10.560;2023-05-07T09:03:13;17.40;99.90
9193;DHT22;4631;49.296;10.560;2023-05-07T09:05:41;17.40;99.90
9193;DHT22;4631;49.296;10.560;2023-05-07T09:08:09;17.50;99.90
9193;DHT22;4631;49.296;10.560;2023-05-07T09:10:35;17.60;99.90
9193;DHT22;4631;49.296;10.560;2023-05-07T09:13:02;17.60;99.90
9193;DHT22;4631;49.296;10.560;2023-05-07T09:15:29;17.60;99.90
9193;DHT22;4631;49.296;10.560;2023-05-07T09:17:59;17.70;99.90
9193;DHT22;4631;49.296;10.560;2023-05-07T09:20:26;17.70;99.90
9193;DHT22;4631;49.296;10.560;2023-05-07T09:22:56;17.70;99.90
9193;DHT22;4631;49.296;10.560;2023-05-07T09:25:27;17.80;99.90
9193;DHT22;4631;49.296;10.560;2023-05-07T09:27:54;17.90;99.90
9193;DHT22;4631;49.296;10.560;2023-05-07T09:30:21;17.90;99.90
9193;DHT22;4631;49.296;10.560;2023-05-07T09:32:47;18.00;99.90
9193;DHT22;4631;49.296;10.560;2023-05-07T09:35:14;18.10;99.90
9193;DHT22;4631;49.296;10.560;2023-05-07T09:37:42;18.20;99.90
9193;DHT22;4631;49.296;10.560;2023-05-07T09:40:10;18.30;99.90
9193;DHT22;4631;49.296;10.560;2023-05-07T09:42:46;18.40;99.90
9193;DHT22;4631;49.296;10.560;2023-05-07T09:45:13;18.50;99.90
9193;DHT22;4631;49.296;10.560;2023-05-07T09:47:40;18.60;99.90
9193;DHT22;4631;49.296;10.560;2023-05-07T09:50:10;18.60;99.90
9193;DHT22;4631;49.296;10.560;2023-05-07T09:52:37;18.70;99.90
9193;DHT22;4631;49.296;10.560;2023-05-07T09:55:05;18.80;99.90
9193;DHT22;4631;49.296;10.560;2023-05-07T09:57:33;18.80;99.90
9193;DHT22;4631;49.296;10.560;2023-05-07T10:00:00;18.90;99.90
9193;DHT22;4631;49.296;10.560;2023-05-07T10:02:29;19.10;99.90
9193;DHT22;4631;49.296;10.560;2023-05-07T10:04:57;19.20;99.90
9193;DHT22;4631;49.296;10.560;2023-05-07T10:07:25;19.40;99.90
9193;DHT22;4631;49.296;10.560;2023-05-07T10:09:52;19.50;99.90
9193;DHT22;4631;49.296;10.560;2023-05-07T10:12:19;19.60;99.90
9193;DHT22;4631;49.296;10.560;2023-05-07T10:14:47;19.70;99.90
9193;DHT22;4631;49.296;10.560;2023-05-07T10:17:15;19.80;99.90
9193;DHT22;4631;49.296;10.560;2023-05-07T10:19:43;19.80;99.90
9193;DHT22;4631;49.296;10.560;2023-05-07T10:22:10;19.80;99.90
9193;DHT22;4631;49.296;10.560;2023-05-07T10:24:37;19.90;99.90
9193;DHT22;4631;49.296;10.560;2023-05-07T10:27:04;19.90;99.90
9193;DHT22;4631;49.296;10.560;2023-05-07T10:29:33;20.00;99.90
9193;DHT22;4631;49.296;10.560;2023-05-07T10:32:12;20.10;99.90
9193;DHT22;4631;49.296;10.560;2023-05-07T10:34:40;20.20;99.90
9193;DHT22;4631;49.296;10.560;2023-05-07T10:37:08;20.30;99.90
9193;DHT22;4631;49.296;10.560;2023-05-07T10:39:35;20.40;99.90
9193;DHT22;4631;49.296;10.560;2023-05-07T10:42:08;20.50;99.90
9193;DHT22;4631;49.296;10.560;2023-05-07T10:44:35;20.70;99.90
9193;DHT22;4631;49.296;10.560;2023-05-07T10:47:09;20.90;99.90
9193;DHT22;4631;49.296;10.560;2023-05-07T10:49:38;21.20;99.90
9193;DHT22;4631;49.296;10.560;2023-05-07T10:52:24;21.50;99.90
9193;DHT22;4631;49.296;10.560;2023-05-07T10:55:18;21.80;99.90
9193;DHT22;4631;49.296;10.560;2023-05-07T10:57:46;22.00;99.90
9193;DHT22;4631;49.296;10.560;2023-05-07T11:03:04;22.00;99.90
9193;DHT22;4631;49.296;10.560;2023-05-07T11:05:33;22.00;99.90
9193;DHT22;4631;49.296;10.560;2023-05-07T11:08:01;22.00;99.90
9193;DHT22;4631;49.296;10.560;2023-05-07T11:13:09;22.00;99.90
9193;DHT22;4631;49.296;10.560;2023-05-07T11:15:37;22.10;99.90
9193;DHT22;4631;49.296;10.560;2023-05-07T11:18:04;22.30;99.90
9193;DHT22;4631;49.296;10.560;2023-05-07T11:20:45;22.60;99.90
9193;DHT22;4631;49.296;10.560;2023-05-07T11:25:57;23.00;99.90
9193;DHT22;4631;49.296;10.560;2023-05-07T11:28:24;23.30;99.90
9193;DHT22;4631;49.296;10.560;2023-05-07T11:30:51;23.50;99.90
9193;DHT22;4631;49.296;10.560;2023-05-07T11:33:18;23.60;99.90
9193;DHT22;4631;49.296;10.560;2023-05-07T11:35:46;23.60;99.90
9193;DHT22;4631;49.296;10.560;2023-05-07T11:38:16;23.70;99.90
9193;DHT22;4631;49.296;10.560;2023-05-07T11:40:52;23.70;99.90
9193;DHT22;4631;49.296;10.560;2023-05-07T11:43:19;24.00;99.90
9193;DHT22;4631;49.296;10.560;2023-05-07T11:45:46;24.10;99.90
9193;DHT22;4631;49.296;10.560;2023-05-07T11:48:13;24.10;99.90
9193;DHT22;4631;49.296;10.560;2023-05-07T11:50:50;24.10;99.90
9193;DHT22;4631;49.296;10.560;2023-05-07T11:53:18;24.00;99.90
9193;DHT22;4631;49.296;10.560;2023-05-07T11:55:45;24.00;99.90
9193;DHT22;4631;49.296;10.560;2023-05-07T11:58:12;24.10;99.90
9193;DHT22;4631;49.296;10.560;2023-05-07T12:00:39;24.10;99.90
9193;DHT22;4631;49.296;10.560;2023-05-07T12:03:14;24.00;99.90
9193;DHT22;4631;49.296;10.560;2023-05-07T12:05:40;23.90;99.90
9193;DHT22;4631;49.296;10.560;2023-05-07T12:08:09;24.00;99.90
9193;DHT22;4631;49.296;10.560;2023-05-07T12:10:40;24.00;99.90
9193;DHT22;4631;49.296;10.560;2023-05-07T12:13:13;23.90;99.90
9193;DHT22;4631;49.296;10.560;2023-05-07T12:15:40;23.90;99.90
9193;DHT22;4631;49.296;10.560;2023-05-07T12:18:06;24.00;99.90
9193;DHT22;4631;49.296;10.560;2023-05-07T12:20:33;24.00;99.90
9193;DHT22;4631;49.296;10.560;2023-05-07T12:23:01;24.00;99.90
9193;DHT22;4631;49.296;10.560;2023-05-07T12:25:30;24.10;99.90
9193;DHT22;4631;49.296;10.560;2023-05-07T12:27:57;24.30;99.90
9193;DHT22;4631;49.296;10.560;2023-05-07T12:30:31;24.50;99.90
9193;DHT22;4631;49.296;10.560;2023-05-07T12:33:01;24.90;99.90
9193;DHT22;4631;49.296;10.560;2023-05-07T12:35:32;25.10;99.90
9193;DHT22;4631;49.296;10.560;2023-05-07T12:38:02;25.20;99.90
9193;DHT22;4631;49.296;10.560;2023-05-07T12:40:36;25.30;99.90
9193;DHT22;4631;49.296;10.560;2023-05-07T12:43:03;25.60;99.90
9193;DHT22;4631;49.296;10.560;2023-05-07T12:45:30;25.50;99.90
9193;DHT22;4631;49.296;10.560;2023-05-07T12:48:00;25.50;99.90
9193;DHT22;4631;49.296;10.560;2023-05-07T12:50:30;25.30;99.90
9193;DHT22;4631;49.296;10.560;2023-05-07T12:52:57;25.20;99.90
9193;DHT22;4631;49.296;10.560;2023-05-07T12:55:23;25.30;99.90
9193;DHT22;4631;49.296;10.560;2023-05-07T12:57:52;25.60;99.90
9193;DHT22;4631;49.296;10.560;2023-05-07T13:00:31;25.80;99.90
9193;DHT22;4631;49.296;10.560;2023-05-07T13:02:58;25.60;99.90
9193;DHT22;4631;49.296;10.560;2023-05-07T13:05:25;25.70;99.90
9193;DHT22;4631;49.296;10.560;2023-05-07T13:07:54;25.90;99.90
9193;DHT22;4631;49.296;10.560;2023-05-07T13:10:21;25.90;99.30
9193;DHT22;4631;49.296;10.560;2023-05-07T13:12:48;25.90;99.90
9193;DHT22;4631;49.296;10.560;2023-05-07T13:15:16;26.10;99.90
9193;DHT22;4631;49.296;10.560;2023-05-07T13:17:43;26.10;98.70
9193;DHT22;4631;49.296;10.560;2023-05-07T13:20:10;26.20;97.00
9193;DHT22;4631;49.296;10.560;2023-05-07T13:22:38;26.40;97.70
9193;DHT22;4631;49.296;10.560;2023-05-07T13:25:05;26.60;96.60
9193;DHT22;4631;49.296;10.560;2023-05-07T13:27:32;26.40;97.60
9193;DHT22;4631;49.296;10.560;2023-05-07T13:30:02;26.60;98.10
9193;DHT22;4631;49.296;10.560;2023-05-07T13:32:30;27.00;98.50
9193;DHT22;4631;49.296;10.560;2023-05-07T13:34:57;27.30;97.90
9193;DHT22;4631;49.296;10.560;2023-05-07T13:37:24;27.50;95.90
9193;DHT22;4631;49.296;10.560;2023-05-07T13:39:51;27.70;95.80
9193;DHT22;4631;49.296;10.560;2023-05-07T13:42:17;28.00;95.90
9193;DHT22;4631;49.296;10.560;2023-05-07T13:44:44;27.90;94.20
9193;DHT22;4631;49.296;10.560;2023-05-07T13:47:11;27.90;94.70
9193;DHT22;4631;49.296;10.560;2023-05-07T13:49:39;27.90;93.20
9193;DHT22;4631;49.296;10.560;2023-05-07T13:52:05;27.90;95.00
9193;DHT22;4631;49.296;10.560;2023-05-07T13:54:32;27.90;94.40
9193;DHT22;4631;49.296;10.560;2023-05-07T13:56:59;28.00;93.20
9193;DHT22;4631;49.296;10.560;2023-05-07T13:59:25;28.00;92.80
9193;DHT22;4631;49.296;10.560;2023-05-07T14:01:52;27.80;93.10
9193;DHT22;4631;49.296;10.560;2023-05-07T14:04:20;27.70;93.90
9193;DHT22;4631;49.296;10.560;2023-05-07T14:06:48;27.70;92.20
9193;DHT22;4631;49.296;10.560;2023-05-07T14:09:14;27.40;92.20
9193;DHT22;4631;49.296;10.560;2023-05-07T14:11:41;27.40;94.10
9193;DHT22;4631;49.296;10.560;2023-05-07T14:14:07;27.40;92.60
9193;DHT22;4631;49.296;10.560;2023-05-07T14:16:35;27.20;94.10
9193;DHT22;4631;49.296;10.560;2023-05-07T14:19:02;27.10;95.10
9193;DHT22;4631;49.296;10.560;2023-05-07T14:21:29;27.20;92.50
9193;DHT22;4631;49.296;10.560;2023-05-07T14:23:57;27.30;92.50
9193;DHT22;4631;49.296;10.560;2023-05-07T14:26:25;27.30;93.70
9193;DHT22;4631;49.296;10.560;2023-05-07T14:28:52;27.10;93.40
9193;DHT22;4631;49.296;10.560;2023-05-07T14:31:20;26.70;93.10
9193;DHT22;4631;49.296;10.560;2023-05-07T14:33:47;26.50;94.00
9193;DHT22;4631;49.296;10.560;2023-05-07T14:36:15;26.40;94.30
9193;DHT22;4631;49.296;10.560;2023-05-07T14:38:42;26.20;94.70
9193;DHT22;4631;49.296;10.560;2023-05-07T14:41:10;26.00;94.60
9193;DHT22;4631;49.296;10.560;2023-05-07T14:43:36;25.80;93.80
9193;DHT22;4631;49.296;10.560;2023-05-07T14:46:03;25.70;95.70
9193;DHT22;4631;49.296;10.560;2023-05-07T14:48:31;25.70;95.00
9193;DHT22;4631;49.296;10.560;2023-05-07T14:50:57;25.70;93.90
9193;DHT22;4631;49.296;10.560;2023-05-07T14:53:24;25.60;93.80
9193;DHT22;4631;49.296;10.560;2023-05-07T14:55:51;25.50;94.20
9193;DHT22;4631;49.296;10.560;2023-05-07T14:58:19;25.40;94.60
9193;DHT22;4631;49.296;10.560;2023-05-07T15:00:45;25.20;94.80
9193;DHT22;4631;49.296;10.560;2023-05-07T15:03:12;25.10;96.20
9193;DHT22;4631;49.296;10.560;2023-05-07T15:05:39;24.90;98.20
9193;DHT22;4631;49.296;10.560;2023-05-07T15:08:06;24.70;97.40
9193;DHT22;4631;49.296;10.560;2023-05-07T15:10:34;24.30;99.00
9193;DHT22;4631;49.296;10.560;2023-05-07T15:13:05;24.10;99.00
9193;DHT22;4631;49.296;10.560;2023-05-07T15:15:33;23.90;99.80
9193;DHT22;4631;49.296;10.560;2023-05-07T15:18:00;23.60;99.90
9193;DHT22;4631;49.296;10.560;2023-05-07T15:20:26;23.40;99.90
9193;DHT22;4631;49.296;10.560;2023-05-07T15:22:53;23.30;99.90
9193;DHT22;4631;49.296;10.560;2023-05-07T15:25:20;23.20;99.90
9193;DHT22;4631;49.296;10.560;2023-05-07T15:27:46;23.20;99.90
9193;DHT22;4631;49.296;10.560;2023-05-07T15:30:13;23.30;99.90
9193;DHT22;4631;49.296;10.560;2023-05-07T15:32:41;23.40;99.90
9193;DHT22;4631;49.296;10.560;2023-05-07T15:35:09;23.50;99.90
9193;DHT22;4631;49.296;10.560;2023-05-07T15:37:35;23.60;99.90
9193;DHT22;4631;49.296;10.560;2023-05-07T15:40:02;23.60;99.90
9193;DHT22;4631;49.296;10.560;2023-05-07T15:42:32;23.60;99.90
9193;DHT22;4631;49.296;10.560;2023-05-07T15:44:58;23.50;99.90
9193;DHT22;4631;49.296;10.560;2023-05-07T15:47:26;23.50;99.90
9193;DHT22;4631;49.296;10.560;2023-05-07T15:49:55;23.40;99.90
9193;DHT22;4631;49.296;10.560;2023-05-07T15:52:21;23.30;99.90
9193;DHT22;4631;49.296;10.560;2023-05-07T15:54:48;23.20;99.90